ETWM

Meppe Airport

Germany
METAR ETWM 222120Z AUTO 19019KT 0350 // ////// 15/14 Q1009 ///
Observed Flight Rules
Apr-22 @ 21:20 UTC (14 minutes ago)
Wind Visibility
190° at 19 knots 354 meters
Temperatures Readings
Current 15°C / 59°F
Dewpoint 14°C / 57°F
Humidity 94%
Altimeter 29.79" Hg
Pressure 1009 hPa
Elevation 21
METAR ETWM 222120Z AUTO 19019KT 0350 // ////// 15/14 Q1009 ///
Observed Flight Rules
Apr-22 @ 21:20 UTC
(14 minutes ago)
Wind Visibility
190° at 19 knots 354 meters
Temperature Dewpoint
15°C / 59°F 14°C / 57°F
Humidity Altimeter Pressure
94% 29.79" Hg 1009 hPa